sensor_id;sensor_type;location;lat;lon;timestamp;P1;durP1;ratioP1;P2;durP2;ratioP2
59555;SDS011;45374;52.746;6.304;2023-04-01T00:00:55;9.10;;;4.88;;
59555;SDS011;45374;52.746;6.304;2023-04-01T00:03:22;10.18;;;5.22;;
59555;SDS011;45374;52.746;6.304;2023-04-01T00:05:50;12.77;;;5.68;;
59555;SDS011;45374;52.746;6.304;2023-04-01T00:08:16;10.00;;;5.50;;
59555;SDS011;45374;52.746;6.304;2023-04-01T00:10:41;10.73;;;5.15;;
59555;SDS011;45374;52.746;6.304;2023-04-01T00:13:07;13.77;;;5.47;;
59555;SDS011;45374;52.746;6.304;2023-04-01T00:15:33;10.13;;;5.00;;
59555;SDS011;45374;52.746;6.304;2023-04-01T00:17:59;10.35;;;5.55;;
59555;SDS011;45374;52.746;6.304;2023-04-01T00:20:25;14.52;;;5.78;;
59555;SDS011;45374;52.746;6.304;2023-04-01T00:22:51;11.80;;;5.68;;
59555;SDS011;45374;52.746;6.304;2023-04-01T00:25:17;11.93;;;5.50;;
59555;SDS011;45374;52.746;6.304;2023-04-01T00:27:43;13.50;;;5.82;;
59555;SDS011;45374;52.746;6.304;2023-04-01T00:30:09;12.80;;;5.47;;
59555;SDS011;45374;52.746;6.304;2023-04-01T00:32:35;11.77;;;5.75;;
59555;SDS011;45374;52.746;6.304;2023-04-01T00:35:02;11.98;;;5.10;;
59555;SDS011;45374;52.746;6.304;2023-04-01T00:37:28;18.08;;;6.65;;
59555;SDS011;45374;52.746;6.304;2023-04-01T00:39:54;10.18;;;5.75;;
59555;SDS011;45374;52.746;6.304;2023-04-01T00:42:20;11.38;;;5.47;;
59555;SDS011;45374;52.746;6.304;2023-04-01T00:44:47;8.10;;;4.72;;
59555;SDS011;45374;52.746;6.304;2023-04-01T00:47:16;10.65;;;4.97;;
59555;SDS011;45374;52.746;6.304;2023-04-01T00:49:44;9.30;;;4.78;;
59555;SDS011;45374;52.746;6.304;2023-04-01T00:52:12;16.15;;;5.53;;
59555;SDS011;45374;52.746;6.304;2023-04-01T00:54:42;13.55;;;5.45;;
59555;SDS011;45374;52.746;6.304;2023-04-01T00:57:19;12.10;;;5.40;;
59555;SDS011;45374;52.746;6.304;2023-04-01T00:59:50;18.08;;;6.05;;
59555;SDS011;45374;52.746;6.304;2023-04-01T01:02:18;13.25;;;5.00;;
59555;SDS011;45374;52.746;6.304;2023-04-01T01:04:44;10.32;;;4.72;;
59555;SDS011;45374;52.746;6.304;2023-04-01T01:12:34;10.57;;;5.35;;
59555;SDS011;45374;52.746;6.304;2023-04-01T01:15:12;10.68;;;5.57;;
59555;SDS011;45374;52.746;6.304;2023-04-01T01:31:12;11.15;;;5.22;;
59555;SDS011;45374;52.746;6.304;2023-04-01T01:36:48;11.40;;;5.25;;
59555;SDS011;45374;52.746;6.304;2023-04-01T01:39:18;11.85;;;5.63;;
59555;SDS011;45374;52.746;6.304;2023-04-01T01:41:45;10.50;;;5.63;;
59555;SDS011;45374;52.746;6.304;2023-04-01T01:44:14;16.40;;;6.32;;
59555;SDS011;45374;52.746;6.304;2023-04-01T01:46:41;14.80;;;6.00;;
59555;SDS011;45374;52.746;6.304;2023-04-01T01:49:09;10.65;;;5.30;;
59555;SDS011;45374;52.746;6.304;2023-04-01T01:51:36;13.43;;;5.47;;
59555;SDS011;45374;52.746;6.304;2023-04-01T01:54:02;13.43;;;6.30;;
59555;SDS011;45374;52.746;6.304;2023-04-01T01:56:27;21.85;;;7.00;;
59555;SDS011;45374;52.746;6.304;2023-04-01T01:58:56;12.38;;;5.80;;
59555;SDS011;45374;52.746;6.304;2023-04-01T02:01:29;22.48;;;7.35;;
59555;SDS011;45374;52.746;6.304;2023-04-01T02:03:57;11.75;;;5.50;;
59555;SDS011;45374;52.746;6.304;2023-04-01T02:06:25;18.88;;;6.25;;
59555;SDS011;45374;52.746;6.304;2023-04-01T02:08:57;15.90;;;6.10;;
59555;SDS011;45374;52.746;6.304;2023-04-01T02:11:27;13.35;;;5.97;;
59555;SDS011;45374;52.746;6.304;2023-04-01T02:16:44;17.98;;;6.45;;
59555;SDS011;45374;52.746;6.304;2023-04-01T02:19:32;10.57;;;5.55;;
59555;SDS011;45374;52.746;6.304;2023-04-01T02:22:03;10.90;;;5.95;;
59555;SDS011;45374;52.746;6.304;2023-04-01T02:24:33;11.18;;;6.30;;
59555;SDS011;45374;52.746;6.304;2023-04-01T02:27:00;17.25;;;6.97;;
59555;SDS011;45374;52.746;6.304;2023-04-01T02:29:26;21.17;;;7.03;;
59555;SDS011;45374;52.746;6.304;2023-04-01T02:31:52;25.65;;;7.93;;
59555;SDS011;45374;52.746;6.304;2023-04-01T02:34:19;19.73;;;6.95;;
59555;SDS011;45374;52.746;6.304;2023-04-01T02:36:46;15.55;;;6.28;;
59555;SDS011;45374;52.746;6.304;2023-04-01T02:39:13;27.98;;;7.80;;
59555;SDS011;45374;52.746;6.304;2023-04-01T02:41:43;13.82;;;6.53;;
59555;SDS011;45374;52.746;6.304;2023-04-01T02:44:10;25.17;;;7.20;;
59555;SDS011;45374;52.746;6.304;2023-04-01T02:46:37;13.45;;;6.50;;
59555;SDS011;45374;52.746;6.304;2023-04-01T02:49:03;13.98;;;6.32;;
59555;SDS011;45374;52.746;6.304;2023-04-01T02:51:29;17.30;;;6.70;;
59555;SDS011;45374;52.746;6.304;2023-04-01T02:53:55;12.95;;;6.57;;
59555;SDS011;45374;52.746;6.304;2023-04-01T02:56:20;22.50;;;7.38;;
59555;SDS011;45374;52.746;6.304;2023-04-01T02:58:46;12.00;;;6.25;;
59555;SDS011;45374;52.746;6.304;2023-04-01T03:01:12;17.90;;;6.93;;
59555;SDS011;45374;52.746;6.304;2023-04-01T03:03:38;11.10;;;6.30;;
59555;SDS011;45374;52.746;6.304;2023-04-01T03:06:06;17.60;;;7.38;;
59555;SDS011;45374;52.746;6.304;2023-04-01T03:08:34;12.18;;;5.80;;
59555;SDS011;45374;52.746;6.304;2023-04-01T03:11:00;13.10;;;6.30;;
59555;SDS011;45374;52.746;6.304;2023-04-01T03:13:26;11.68;;;6.50;;
59555;SDS011;45374;52.746;6.304;2023-04-01T03:15:51;12.25;;;6.50;;
59555;SDS011;45374;52.746;6.304;2023-04-01T03:18:18;11.70;;;6.63;;
59555;SDS011;45374;52.746;6.304;2023-04-01T03:20:44;13.60;;;6.75;;
59555;SDS011;45374;52.746;6.304;2023-04-01T03:23:10;14.20;;;6.65;;
59555;SDS011;45374;52.746;6.304;2023-04-01T03:25:36;12.73;;;6.43;;
59555;SDS011;45374;52.746;6.304;2023-04-01T03:28:02;12.10;;;6.60;;
59555;SDS011;45374;52.746;6.304;2023-04-01T03:30:28;16.45;;;6.68;;
59555;SDS011;45374;52.746;6.304;2023-04-01T03:32:57;12.90;;;6.60;;
59555;SDS011;45374;52.746;6.304;2023-04-01T03:35:24;13.60;;;6.93;;
59555;SDS011;45374;52.746;6.304;2023-04-01T03:37:51;12.63;;;6.13;;
59555;SDS011;45374;52.746;6.304;2023-04-01T03:40:17;13.68;;;6.72;;
59555;SDS011;45374;52.746;6.304;2023-04-01T03:42:43;11.88;;;6.25;;
59555;SDS011;45374;52.746;6.304;2023-04-01T03:45:08;15.07;;;6.47;;
59555;SDS011;45374;52.746;6.304;2023-04-01T03:47:35;13.60;;;6.38;;
59555;SDS011;45374;52.746;6.304;2023-04-01T03:50:00;15.80;;;7.15;;
59555;SDS011;45374;52.746;6.304;2023-04-01T03:52:26;10.30;;;6.28;;
59555;SDS011;45374;52.746;6.304;2023-04-01T03:54:51;11.88;;;6.15;;
59555;SDS011;45374;52.746;6.304;2023-04-01T03:57:17;13.05;;;6.35;;
59555;SDS011;45374;52.746;6.304;2023-04-01T03:59:42;13.38;;;6.47;;
59555;SDS011;45374;52.746;6.304;2023-04-01T04:02:08;12.57;;;6.65;;
59555;SDS011;45374;52.746;6.304;2023-04-01T04:04:34;16.17;;;7.25;;
59555;SDS011;45374;52.746;6.304;2023-04-01T04:06:59;12.55;;;6.60;;
59555;SDS011;45374;52.746;6.304;2023-04-01T04:09:25;12.10;;;6.85;;
59555;SDS011;45374;52.746;6.304;2023-04-01T04:11:50;16.00;;;6.88;;
59555;SDS011;45374;52.746;6.304;2023-04-01T04:14:16;10.15;;;5.78;;
59555;SDS011;45374;52.746;6.304;2023-04-01T04:16:42;14.90;;;6.25;;
59555;SDS011;45374;52.746;6.304;2023-04-01T04:19:07;11.95;;;6.50;;
59555;SDS011;45374;52.746;6.304;2023-04-01T04:21:33;12.68;;;6.35;;
59555;SDS011;45374;52.746;6.304;2023-04-01T04:23:59;11.35;;;6.00;;
59555;SDS011;45374;52.746;6.304;2023-04-01T04:26:26;15.80;;;6.35;;
59555;SDS011;45374;52.746;6.304;2023-04-01T04:28:51;12.40;;;5.97;;
59555;SDS011;45374;52.746;6.304;2023-04-01T04:31:21;14.13;;;6.38;;
59555;SDS011;45374;52.746;6.304;2023-04-01T04:33:48;13.35;;;6.38;;
59555;SDS011;45374;52.746;6.304;2023-04-01T04:36:14;10.48;;;5.75;;
59555;SDS011;45374;52.746;6.304;2023-04-01T04:38:40;12.30;;;5.80;;
59555;SDS011;45374;52.746;6.304;2023-04-01T04:41:09;12.38;;;6.30;;
59555;SDS011;45374;52.746;6.304;2023-04-01T04:43:37;13.25;;;6.60;;
59555;SDS011;45374;52.746;6.304;2023-04-01T04:46:04;10.65;;;5.75;;
59555;SDS011;45374;52.746;6.304;2023-04-01T04:48:31;11.90;;;5.85;;
59555;SDS011;45374;52.746;6.304;2023-04-01T04:50:57;12.52;;;5.97;;
59555;SDS011;45374;52.746;6.304;2023-04-01T04:53:22;8.93;;;5.00;;
59555;SDS011;45374;52.746;6.304;2023-04-01T04:55:48;11.25;;;5.38;;
59555;SDS011;45374;52.746;6.304;2023-04-01T04:58:15;10.05;;;5.28;;
59555;SDS011;45374;52.746;6.304;2023-04-01T05:00:41;9.98;;;5.13;;
59555;SDS011;45374;52.746;6.304;2023-04-01T05:03:07;14.52;;;5.88;;
59555;SDS011;45374;52.746;6.304;2023-04-01T05:05:33;13.52;;;5.60;;
59555;SDS011;45374;52.746;6.304;2023-04-01T05:07:59;11.02;;;5.30;;
59555;SDS011;45374;52.746;6.304;2023-04-01T05:10:25;10.00;;;5.32;;
59555;SDS011;45374;52.746;6.304;2023-04-01T05:12:50;8.73;;;4.30;;
59555;SDS011;45374;52.746;6.304;2023-04-01T05:15:16;8.35;;;3.95;;
59555;SDS011;45374;52.746;6.304;2023-04-01T05:17:42;7.75;;;3.67;;
59555;SDS011;45374;52.746;6.304;2023-04-01T05:20:07;13.70;;;5.00;;
59555;SDS011;45374;52.746;6.304;2023-04-01T05:22:33;7.95;;;4.03;;
59555;SDS011;45374;52.746;6.304;2023-04-01T05:24:58;9.07;;;4.55;;
59555;SDS011;45374;52.746;6.304;2023-04-01T05:27:24;11.40;;;4.70;;
59555;SDS011;45374;52.746;6.304;2023-04-01T05:29:50;11.20;;;5.38;;
59555;SDS011;45374;52.746;6.304;2023-04-01T05:32:15;11.15;;;5.80;;
59555;SDS011;45374;52.746;6.304;2023-04-01T05:34:41;11.35;;;5.85;;
59555;SDS011;45374;52.746;6.304;2023-04-01T05:37:07;15.32;;;6.32;;
59555;SDS011;45374;52.746;6.304;2023-04-01T05:39:38;17.63;;;6.47;;
59555;SDS011;45374;52.746;6.304;2023-04-01T05:42:05;14.25;;;6.57;;
59555;SDS011;45374;52.746;6.304;2023-04-01T05:44:31;14.95;;;7.05;;
59555;SDS011;45374;52.746;6.304;2023-04-01T05:46:57;17.63;;;7.65;;
59555;SDS011;45374;52.746;6.304;2023-04-01T05:49:22;17.00;;;7.80;;
59555;SDS011;45374;52.746;6.304;2023-04-01T05:51:48;20.33;;;8.95;;
59555;SDS011;45374;52.746;6.304;2023-04-01T05:54:13;17.55;;;8.05;;
59555;SDS011;45374;52.746;6.304;2023-04-01T05:56:39;18.92;;;8.38;;
59555;SDS011;45374;52.746;6.304;2023-04-01T05:59:04;17.52;;;8.05;;
59555;SDS011;45374;52.746;6.304;2023-04-01T06:01:30;25.40;;;8.93;;
59555;SDS011;45374;52.746;6.304;2023-04-01T06:03:56;34.03;;;9.82;;
59555;SDS011;45374;52.746;6.304;2023-04-01T06:06:25;19.88;;;8.88;;
59555;SDS011;45374;52.746;6.304;2023-04-01T06:08:53;21.30;;;7.97;;
59555;SDS011;45374;52.746;6.304;2023-04-01T06:11:35;16.10;;;7.13;;
59555;SDS011;45374;52.746;6.304;2023-04-01T06:31:06;17.42;;;6.57;;
59555;SDS011;45374;52.746;6.304;2023-04-01T06:33:51;15.43;;;6.85;;
59555;SDS011;45374;52.746;6.304;2023-04-01T06:45:09;15.00;;;6.40;;
59555;SDS011;45374;52.746;6.304;2023-04-01T06:53:25;15.80;;;6.00;;
59555;SDS011;45374;52.746;6.304;2023-04-01T06:56:11;12.68;;;5.70;;
59555;SDS011;45374;52.746;6.304;2023-04-01T07:01:10;10.50;;;4.88;;
59555;SDS011;45374;52.746;6.304;2023-04-01T07:03:41;10.23;;;4.57;;
59555;SDS011;45374;52.746;6.304;2023-04-01T07:06:13;11.05;;;4.80;;
59555;SDS011;45374;52.746;6.304;2023-04-01T07:08:46;11.95;;;5.00;;
59555;SDS011;45374;52.746;6.304;2023-04-01T07:11:22;10.02;;;4.30;;
59555;SDS011;45374;52.746;6.304;2023-04-01T07:13:55;10.13;;;4.22;;
59555;SDS011;45374;52.746;6.304;2023-04-01T07:16:33;10.90;;;4.78;;
59555;SDS011;45374;52.746;6.304;2023-04-01T07:21:47;9.52;;;4.35;;
59555;SDS011;45374;52.746;6.304;2023-04-01T07:24:20;12.38;;;5.28;;
59555;SDS011;45374;52.746;6.304;2023-04-01T07:26:57;13.30;;;5.60;;
59555;SDS011;45374;52.746;6.304;2023-04-01T07:29:23;13.52;;;5.95;;
59555;SDS011;45374;52.746;6.304;2023-04-01T07:34:36;15.88;;;7.60;;
59555;SDS011;45374;52.746;6.304;2023-04-01T07:37:10;17.65;;;8.65;;
59555;SDS011;45374;52.746;6.304;2023-04-01T07:40:02;15.90;;;7.65;;
59555;SDS011;45374;52.746;6.304;2023-04-01T07:42:49;14.15;;;7.18;;
59555;SDS011;45374;52.746;6.304;2023-04-01T07:51:27;9.13;;;5.70;;
59555;SDS011;45374;52.746;6.304;2023-04-01T07:54:10;8.20;;;5.03;;
59555;SDS011;45374;52.746;6.304;2023-04-01T07:56:50;9.25;;;5.15;;
59555;SDS011;45374;52.746;6.304;2023-04-01T08:05:16;9.65;;;4.70;;
59555;SDS011;45374;52.746;6.304;2023-04-01T08:07:59;6.72;;;3.78;;
59555;SDS011;45374;52.746;6.304;2023-04-01T08:13:21;6.90;;;4.05;;
59555;SDS011;45374;52.746;6.304;2023-04-01T08:16:06;6.35;;;3.50;;
59555;SDS011;45374;52.746;6.304;2023-04-01T08:18:54;6.65;;;3.47;;
59555;SDS011;45374;52.746;6.304;2023-04-01T08:21:51;7.03;;;3.30;;
59555;SDS011;45374;52.746;6.304;2023-04-01T08:24:22;6.07;;;3.75;;
59555;SDS011;45374;52.746;6.304;2023-04-01T08:44:23;6.57;;;4.35;;
59555;SDS011;45374;52.746;6.304;2023-04-01T08:47:24;7.57;;;4.45;;
59555;SDS011;45374;52.746;6.304;2023-04-01T09:01:10;10.38;;;6.38;;
59555;SDS011;45374;52.746;6.304;2023-04-01T09:04:51;14.20;;;6.50;;
59555;SDS011;45374;52.746;6.304;2023-04-01T09:20:44;6.53;;;3.10;;
59555;SDS011;45374;52.746;6.304;2023-04-01T09:23:29;5.10;;;3.10;;
59555;SDS011;45374;52.746;6.304;2023-04-01T09:26:39;4.35;;;2.65;;
59555;SDS011;45374;52.746;6.304;2023-04-01T09:32:11;5.53;;;2.00;;
59555;SDS011;45374;52.746;6.304;2023-04-01T09:34:57;3.90;;;2.13;;
59555;SDS011;45374;52.746;6.304;2023-04-01T09:43:23;3.47;;;2.03;;
59555;SDS011;45374;52.746;6.304;2023-04-01T09:51:48;5.05;;;3.13;;
59555;SDS011;45374;52.746;6.304;2023-04-01T09:54:38;5.35;;;3.20;;
59555;SDS011;45374;52.746;6.304;2023-04-01T10:00:21;7.95;;;5.00;;
59555;SDS011;45374;52.746;6.304;2023-04-01T10:08:26;11.15;;;5.75;;
59555;SDS011;45374;52.746;6.304;2023-04-01T10:14:15;9.68;;;6.00;;
59555;SDS011;45374;52.746;6.304;2023-04-01T10:23:27;10.93;;;6.53;;
59555;SDS011;45374;52.746;6.304;2023-04-01T10:37:54;11.15;;;7.30;;
59555;SDS011;45374;52.746;6.304;2023-04-01T11:08:38;14.63;;;8.70;;
59555;SDS011;45374;52.746;6.304;2023-04-01T11:23:01;15.05;;;9.25;;
59555;SDS011;45374;52.746;6.304;2023-04-01T11:50:46;6.50;;;3.78;;
59555;SDS011;45374;52.746;6.304;2023-04-01T11:59:36;6.65;;;4.30;;
59555;SDS011;45374;52.746;6.304;2023-04-01T12:10:20;9.02;;;5.47;;
59555;SDS011;45374;52.746;6.304;2023-04-01T12:16:09;7.72;;;4.60;;
59555;SDS011;45374;52.746;6.304;2023-04-01T12:30:33;9.27;;;4.93;;
59555;SDS011;45374;52.746;6.304;2023-04-01T12:36:13;6.03;;;3.58;;
59555;SDS011;45374;52.746;6.304;2023-04-01T12:39:11;9.52;;;4.75;;
59555;SDS011;45374;52.746;6.304;2023-04-01T12:42:07;9.82;;;3.50;;
59555;SDS011;45374;52.746;6.304;2023-04-01T12:48:06;6.88;;;4.53;;
59555;SDS011;45374;52.746;6.304;2023-04-01T13:07:54;4.85;;;3.13;;
59555;SDS011;45374;52.746;6.304;2023-04-01T13:24:04;6.10;;;3.83;;
59555;SDS011;45374;52.746;6.304;2023-04-01T13:27:15;7.63;;;5.03;;
59555;SDS011;45374;52.746;6.304;2023-04-01T13:33:01;8.18;;;5.35;;
59555;SDS011;45374;52.746;6.304;2023-04-01T13:35:53;9.20;;;4.78;;
59555;SDS011;45374;52.746;6.304;2023-04-01T13:41:10;4.07;;;2.78;;
59555;SDS011;45374;52.746;6.304;2023-04-01T13:43:52;7.82;;;5.10;;
59555;SDS011;45374;52.746;6.304;2023-04-01T13:52:59;6.32;;;4.53;;
59555;SDS011;45374;52.746;6.304;2023-04-01T14:01:15;5.70;;;3.78;;
59555;SDS011;45374;52.746;6.304;2023-04-01T14:04:09;3.67;;;2.40;;
59555;SDS011;45374;52.746;6.304;2023-04-01T14:07:13;5.72;;;4.10;;
59555;SDS011;45374;52.746;6.304;2023-04-01T14:10:07;5.10;;;4.00;;
59555;SDS011;45374;52.746;6.304;2023-04-01T14:12:58;5.22;;;4.25;;
59555;SDS011;45374;52.746;6.304;2023-04-01T14:15:42;6.75;;;4.43;;
59555;SDS011;45374;52.746;6.304;2023-04-01T14:21:07;7.30;;;4.78;;
59555;SDS011;45374;52.746;6.304;2023-04-01T14:26:45;6.18;;;4.60;;
59555;SDS011;45374;52.746;6.304;2023-04-01T14:32:06;6.57;;;4.60;;
59555;SDS011;45374;52.746;6.304;2023-04-01T14:35:05;4.78;;;3.75;;
59555;SDS011;45374;52.746;6.304;2023-04-01T14:40:48;4.22;;;3.28;;
59555;SDS011;45374;52.746;6.304;2023-04-01T14:43:41;4.32;;;3.63;;
59555;SDS011;45374;52.746;6.304;2023-04-01T14:49:20;2.35;;;1.75;;
59555;SDS011;45374;52.746;6.304;2023-04-01T14:55:00;3.08;;;2.25;;
59555;SDS011;45374;52.746;6.304;2023-04-01T14:57:36;4.65;;;2.92;;
59555;SDS011;45374;52.746;6.304;2023-04-01T15:00:14;3.25;;;2.70;;
59555;SDS011;45374;52.746;6.304;2023-04-01T15:02:56;2.85;;;2.40;;
59555;SDS011;45374;52.746;6.304;2023-04-01T15:08:33;4.43;;;2.70;;
59555;SDS011;45374;52.746;6.304;2023-04-01T15:14:18;2.88;;;2.55;;
59555;SDS011;45374;52.746;6.304;2023-04-01T15:30:53;3.25;;;2.70;;
59555;SDS011;45374;52.746;6.304;2023-04-01T15:34:06;1.52;;;1.20;;
59555;SDS011;45374;52.746;6.304;2023-04-01T15:40:24;3.88;;;3.30;;
59555;SDS011;45374;52.746;6.304;2023-04-01T15:45:41;2.90;;;2.28;;
59555;SDS011;45374;52.746;6.304;2023-04-01T15:51:28;4.85;;;3.67;;
59555;SDS011;45374;52.746;6.304;2023-04-01T15:54:16;3.97;;;3.58;;
59555;SDS011;45374;52.746;6.304;2023-04-01T15:56:53;5.13;;;3.00;;
59555;SDS011;45374;52.746;6.304;2023-04-01T16:02:21;3.17;;;2.30;;
59555;SDS011;45374;52.746;6.304;2023-04-01T16:04:54;3.03;;;2.38;;
59555;SDS011;45374;52.746;6.304;2023-04-01T16:07:38;4.43;;;3.60;;
59555;SDS011;45374;52.746;6.304;2023-04-01T16:16:00;4.53;;;3.53;;
59555;SDS011;45374;52.746;6.304;2023-04-01T16:22:00;4.53;;;3.47;;
59555;SDS011;45374;52.746;6.304;2023-04-01T16:24:33;5.38;;;3.97;;
59555;SDS011;45374;52.746;6.304;2023-04-01T16:27:36;5.00;;;3.58;;
59555;SDS011;45374;52.746;6.304;2023-04-01T16:33:20;4.60;;;3.97;;
59555;SDS011;45374;52.746;6.304;2023-04-01T16:36:11;8.63;;;5.82;;
59555;SDS011;45374;52.746;6.304;2023-04-01T16:38:52;4.55;;;3.80;;
59555;SDS011;45374;52.746;6.304;2023-04-01T16:41:41;16.13;;;8.07;;
59555;SDS011;45374;52.746;6.304;2023-04-01T16:44:20;4.55;;;4.03;;
59555;SDS011;45374;52.746;6.304;2023-04-01T16:51:54;4.97;;;4.05;;
59555;SDS011;45374;52.746;6.304;2023-04-01T16:57:55;4.20;;;3.80;;
59555;SDS011;45374;52.746;6.304;2023-04-01T17:00:37;5.18;;;4.40;;
59555;SDS011;45374;52.746;6.304;2023-04-01T17:06:28;3.80;;;3.40;;
59555;SDS011;45374;52.746;6.304;2023-04-01T17:12:03;5.95;;;4.40;;
59555;SDS011;45374;52.746;6.304;2023-04-01T17:14:58;6.22;;;4.43;;
59555;SDS011;45374;52.746;6.304;2023-04-01T17:20:42;6.82;;;5.28;;
59555;SDS011;45374;52.746;6.304;2023-04-01T17:31:52;9.13;;;7.18;;
59555;SDS011;45374;52.746;6.304;2023-04-01T17:40:12;11.00;;;6.75;;
59555;SDS011;45374;52.746;6.304;2023-04-01T17:42:49;10.70;;;7.35;;
59555;SDS011;45374;52.746;6.304;2023-04-01T17:45:45;10.80;;;7.15;;
59555;SDS011;45374;52.746;6.304;2023-04-01T17:48:24;10.90;;;8.20;;
59555;SDS011;45374;52.746;6.304;2023-04-01T17:51:11;10.02;;;6.90;;
59555;SDS011;45374;52.746;6.304;2023-04-01T17:59:13;8.35;;;4.50;;
59555;SDS011;45374;52.746;6.304;2023-04-01T18:05:05;12.95;;;7.28;;
59555;SDS011;45374;52.746;6.304;2023-04-01T18:13:41;10.50;;;7.38;;
59555;SDS011;45374;52.746;6.304;2023-04-01T18:16:39;11.20;;;7.05;;
59555;SDS011;45374;52.746;6.304;2023-04-01T18:22:08;12.65;;;7.75;;
59555;SDS011;45374;52.746;6.304;2023-04-01T18:24:45;11.18;;;6.95;;
59555;SDS011;45374;52.746;6.304;2023-04-01T18:27:24;10.15;;;6.40;;
59555;SDS011;45374;52.746;6.304;2023-04-01T18:32:55;9.38;;;5.93;;
59555;SDS011;45374;52.746;6.304;2023-04-01T18:46:52;9.50;;;6.35;;
59555;SDS011;45374;52.746;6.304;2023-04-01T18:52:48;12.43;;;6.57;;
59555;SDS011;45374;52.746;6.304;2023-04-01T19:01:14;12.93;;;6.93;;
59555;SDS011;45374;52.746;6.304;2023-04-01T19:03:48;13.80;;;7.75;;
59555;SDS011;45374;52.746;6.304;2023-04-01T19:06:23;9.85;;;6.88;;
59555;SDS011;45374;52.746;6.304;2023-04-01T19:08:55;12.95;;;7.78;;
59555;SDS011;45374;52.746;6.304;2023-04-01T19:11:36;12.05;;;7.50;;
59555;SDS011;45374;52.746;6.304;2023-04-01T19:14:37;11.32;;;7.20;;
59555;SDS011;45374;52.746;6.304;2023-04-01T19:20:15;12.65;;;7.80;;
59555;SDS011;45374;52.746;6.304;2023-04-01T19:31:08;14.35;;;8.38;;
59555;SDS011;45374;52.746;6.304;2023-04-01T19:42:05;16.83;;;9.90;;
59555;SDS011;45374;52.746;6.304;2023-04-01T19:47:08;14.07;;;7.18;;
59555;SDS011;45374;52.746;6.304;2023-04-01T19:49:57;16.23;;;9.07;;
59555;SDS011;45374;52.746;6.304;2023-04-01T19:52:29;17.98;;;9.10;;
59555;SDS011;45374;52.746;6.304;2023-04-01T20:01:21;15.02;;;9.23;;
59555;SDS011;45374;52.746;6.304;2023-04-01T20:10:13;17.25;;;9.70;;
59555;SDS011;45374;52.746;6.304;2023-04-01T20:15:45;17.60;;;9.00;;
59555;SDS011;45374;52.746;6.304;2023-04-01T20:20:54;17.42;;;10.32;;
59555;SDS011;45374;52.746;6.304;2023-04-01T20:26:25;15.00;;;9.90;;
59555;SDS011;45374;52.746;6.304;2023-04-01T20:29:02;13.48;;;7.95;;
59555;SDS011;45374;52.746;6.304;2023-04-01T20:31:40;15.25;;;8.18;;
59555;SDS011;45374;52.746;6.304;2023-04-01T20:34:13;15.93;;;9.63;;
59555;SDS011;45374;52.746;6.304;2023-04-01T20:37:00;17.38;;;9.73;;
59555;SDS011;45374;52.746;6.304;2023-04-01T20:39:48;18.13;;;9.80;;
59555;SDS011;45374;52.746;6.304;2023-04-01T20:53:40;16.35;;;9.27;;
59555;SDS011;45374;52.746;6.304;2023-04-01T20:58:47;18.17;;;10.90;;
59555;SDS011;45374;52.746;6.304;2023-04-01T21:04:00;17.52;;;9.13;;
59555;SDS011;45374;52.746;6.304;2023-04-01T21:09:16;19.67;;;10.57;;
59555;SDS011;45374;52.746;6.304;2023-04-01T21:12:01;19.20;;;10.55;;
59555;SDS011;45374;52.746;6.304;2023-04-01T21:14:59;21.15;;;11.35;;
59555;SDS011;45374;52.746;6.304;2023-04-01T21:17:38;18.50;;;10.82;;
59555;SDS011;45374;52.746;6.304;2023-04-01T21:20:13;22.35;;;11.02;;
59555;SDS011;45374;52.746;6.304;2023-04-01T21:32:17;22.02;;;11.20;;
59555;SDS011;45374;52.746;6.304;2023-04-01T21:35:03;21.98;;;12.40;;
59555;SDS011;45374;52.746;6.304;2023-04-01T21:37:53;22.30;;;11.68;;
59555;SDS011;45374;52.746;6.304;2023-04-01T21:40:49;19.98;;;11.80;;
59555;SDS011;45374;52.746;6.304;2023-04-01T21:43:36;19.40;;;11.55;;
59555;SDS011;45374;52.746;6.304;2023-04-01T22:03:03;18.58;;;10.73;;
59555;SDS011;45374;52.746;6.304;2023-04-01T22:05:49;19.55;;;10.23;;
59555;SDS011;45374;52.746;6.304;2023-04-01T22:11:31;18.42;;;9.63;;
59555;SDS011;45374;52.746;6.304;2023-04-01T22:17:23;21.00;;;10.52;;
59555;SDS011;45374;52.746;6.304;2023-04-01T22:25:08;25.52;;;12.05;;
59555;SDS011;45374;52.746;6.304;2023-04-01T22:27:46;21.45;;;10.35;;
59555;SDS011;45374;52.746;6.304;2023-04-01T22:30:39;15.30;;;7.70;;
59555;SDS011;45374;52.746;6.304;2023-04-01T22:36:10;18.20;;;10.13;;
59555;SDS011;45374;52.746;6.304;2023-04-01T22:41:18;22.52;;;10.50;;
59555;SDS011;45374;52.746;6.304;2023-04-01T22:44:00;18.02;;;10.77;;
59555;SDS011;45374;52.746;6.304;2023-04-01T22:46:33;22.02;;;10.65;;
59555;SDS011;45374;52.746;6.304;2023-04-01T22:49:15;18.48;;;9.98;;
59555;SDS011;45374;52.746;6.304;2023-04-01T22:54:48;20.10;;;10.20;;
59555;SDS011;45374;52.746;6.304;2023-04-01T23:05:50;20.40;;;9.88;;
59555;SDS011;45374;52.746;6.304;2023-04-01T23:08:36;21.10;;;10.20;;
59555;SDS011;45374;52.746;6.304;2023-04-01T23:11:09;19.83;;;10.02;;
59555;SDS011;45374;52.746;6.304;2023-04-01T23:16:34;18.25;;;10.10;;
59555;SDS011;45374;52.746;6.304;2023-04-01T23:19:11;20.48;;;8.90;;
59555;SDS011;45374;52.746;6.304;2023-04-01T23:21:51;20.13;;;9.85;;
59555;SDS011;45374;52.746;6.304;2023-04-01T23:24:37;21.70;;;10.05;;
59555;SDS011;45374;52.746;6.304;2023-04-01T23:27:31;19.02;;;10.30;;
59555;SDS011;45374;52.746;6.304;2023-04-01T23:33:09;20.88;;;9.57;;
59555;SDS011;45374;52.746;6.304;2023-04-01T23:36:19;15.52;;;7.53;;
59555;SDS011;45374;52.746;6.304;2023-04-01T23:38:40;18.70;;;9.27;;
59555;SDS011;45374;52.746;6.304;2023-04-01T23:41:08;15.88;;;9.55;;
59555;SDS011;45374;52.746;6.304;2023-04-01T23:43:49;18.77;;;9.27;;
59555;SDS011;45374;52.746;6.304;2023-04-01T23:46:21;15.93;;;8.48;;
59555;SDS011;45374;52.746;6.304;2023-04-01T23:48:47;18.73;;;9.10;;
59555;SDS011;45374;52.746;6.304;2023-04-01T23:51:18;19.58;;;8.77;;
59555;SDS011;45374;52.746;6.304;2023-04-01T23:56:55;18.67;;;8.60;;
